sensor_id;sensor_type;location;lat;lon;timestamp;pressure;altitude;pressure_sealevel;temperature;humidity
63700;BME280;49845;47.130;142.766;2024-03-25T00:01:00;100180.31;;;0.61;44.33
63700;BME280;49845;47.130;142.766;2024-03-25T00:03:29;100169.19;;;0.62;44.52
63700;BME280;49845;47.130;142.766;2024-03-25T00:05:57;100170.09;;;0.26;43.34
63700;BME280;49845;47.130;142.766;2024-03-25T00:08:26;100181.53;;;0.39;45.16
63700;BME280;49845;47.130;142.766;2024-03-25T00:10:53;100170.31;;;0.35;44.96
63700;BME280;49845;47.130;142.766;2024-03-25T00:13:22;100176.59;;;0.12;45.69
63700;BME280;49845;47.130;142.766;2024-03-25T00:15:50;100185.94;;;0.08;45.57
63700;BME280;49845;47.130;142.766;2024-03-25T00:18:20;100171.69;;;0.21;43.81
63700;BME280;49845;47.130;142.766;2024-03-25T00:20:48;100181.00;;;0.54;43.96
63700;BME280;49845;47.130;142.766;2024-03-25T00:23:18;100177.13;;;0.71;45.08
63700;BME280;49845;47.130;142.766;2024-03-25T00:25:45;100178.84;;;0.72;42.64
63700;BME280;49845;47.130;142.766;2024-03-25T00:28:14;100170.03;;;1.02;43.53
63700;BME280;49845;47.130;142.766;2024-03-25T00:30:42;100161.63;;;1.09;43.03
63700;BME280;49845;47.130;142.766;2024-03-25T00:33:11;100160.69;;;1.05;43.85
63700;BME280;49845;47.130;142.766;2024-03-25T00:35:40;100170.31;;;0.75;45.33
63700;BME280;49845;47.130;142.766;2024-03-25T00:38:09;100174.13;;;0.92;46.54
63700;BME280;49845;47.130;142.766;2024-03-25T00:40:37;100177.97;;;0.70;44.54
63700;BME280;49845;47.130;142.766;2024-03-25T00:43:06;100175.94;;;0.57;46.69
63700;BME280;49845;47.130;142.766;2024-03-25T00:45:33;100174.25;;;0.59;45.66
63700;BME280;49845;47.130;142.766;2024-03-25T00:48:03;100166.97;;;0.39;46.05
63700;BME280;49845;47.130;142.766;2024-03-25T00:50:30;100166.97;;;0.03;45.97
63700;BME280;49845;47.130;142.766;2024-03-25T00:53:01;100175.16;;;-0.12;47.90
63700;BME280;49845;47.130;142.766;2024-03-25T00:55:28;100161.53;;;-0.09;46.32
63700;BME280;49845;47.130;142.766;2024-03-25T00:57:57;100165.31;;;-0.28;46.82
63700;BME280;49845;47.130;142.766;2024-03-25T01:00:25;100184.31;;;-0.55;47.59
63700;BME280;49845;47.130;142.766;2024-03-25T01:02:54;100181.22;;;-0.73;46.43
63700;BME280;49845;47.130;142.766;2024-03-25T01:05:22;100183.22;;;-0.93;47.69
63700;BME280;49845;47.130;142.766;2024-03-25T01:07:51;100174.25;;;-1.08;48.65
63700;BME280;49845;47.130;142.766;2024-03-25T01:10:20;100162.41;;;-1.33;46.77
63700;BME280;49845;47.130;142.766;2024-03-25T01:12:49;100177.50;;;-1.15;47.66
63700;BME280;49845;47.130;142.766;2024-03-25T01:15:17;100168.34;;;-1.05;46.95
63700;BME280;49845;47.130;142.766;2024-03-25T01:17:46;100172.19;;;-0.91;47.72
63700;BME280;49845;47.130;142.766;2024-03-25T01:20:13;100164.47;;;-0.92;48.42
63700;BME280;49845;47.130;142.766;2024-03-25T01:22:42;100158.66;;;-0.53;47.44
63700;BME280;49845;47.130;142.766;2024-03-25T01:25:16;100163.75;;;-0.23;46.75
63700;BME280;49845;47.130;142.766;2024-03-25T01:27:47;100158.50;;;0.07;46.99
63700;BME280;49845;47.130;142.766;2024-03-25T01:30:14;100167.81;;;0.40;47.14
63700;BME280;49845;47.130;142.766;2024-03-25T01:32:43;100165.53;;;0.51;46.11
63700;BME280;49845;47.130;142.766;2024-03-25T01:35:11;100149.53;;;1.05;44.79
63700;BME280;49845;47.130;142.766;2024-03-25T01:37:40;100153.38;;;1.25;45.68
63700;BME280;49845;47.130;142.766;2024-03-25T01:40:08;100156.34;;;1.97;45.11
63700;BME280;49845;47.130;142.766;2024-03-25T01:42:38;100155.41;;;1.90;42.55
63700;BME280;49845;47.130;142.766;2024-03-25T01:45:08;100157.78;;;1.80;44.71
63700;BME280;49845;47.130;142.766;2024-03-25T01:47:37;100157.38;;;1.55;42.92
63700;BME280;49845;47.130;142.766;2024-03-25T01:50:07;100141.41;;;1.27;44.46
63700;BME280;49845;47.130;142.766;2024-03-25T01:52:36;100156.34;;;1.03;45.49
63700;BME280;49845;47.130;142.766;2024-03-25T01:55:04;100158.81;;;1.41;45.84
63700;BME280;49845;47.130;142.766;2024-03-25T01:57:34;100161.22;;;1.79;45.08
63700;BME280;49845;47.130;142.766;2024-03-25T02:00:01;100150.38;;;1.48;42.50
63700;BME280;49845;47.130;142.766;2024-03-25T02:02:33;100152.19;;;1.54;44.56
63700;BME280;49845;47.130;142.766;2024-03-25T02:05:01;100164.66;;;1.78;44.23
63700;BME280;49845;47.130;142.766;2024-03-25T02:07:32;100153.66;;;1.41;44.72
63700;BME280;49845;47.130;142.766;2024-03-25T02:10:00;100151.03;;;1.38;45.92
63700;BME280;49845;47.130;142.766;2024-03-25T02:12:30;100149.22;;;1.81;44.39
63700;BME280;49845;47.130;142.766;2024-03-25T02:14:58;100156.56;;;2.09;43.96
63700;BME280;49845;47.130;142.766;2024-03-25T02:17:29;100156.28;;;2.46;45.01
63700;BME280;49845;47.130;142.766;2024-03-25T02:19:59;100144.50;;;2.63;44.74
63700;BME280;49845;47.130;142.766;2024-03-25T02:22:27;100152.50;;;2.83;43.95
63700;BME280;49845;47.130;142.766;2024-03-25T02:24:57;100139.50;;;2.75;43.64
63700;BME280;49845;47.130;142.766;2024-03-25T02:27:28;100152.72;;;2.39;43.36
63700;BME280;49845;47.130;142.766;2024-03-25T02:30:02;100159.22;;;2.12;43.66
63700;BME280;49845;47.130;142.766;2024-03-25T02:32:32;100142.56;;;1.43;42.82
63700;BME280;49845;47.130;142.766;2024-03-25T02:35:01;100163.53;;;1.19;43.49
63700;BME280;49845;47.130;142.766;2024-03-25T02:37:31;100160.44;;;0.93;44.78
63700;BME280;49845;47.130;142.766;2024-03-25T02:40:01;100159.19;;;0.36;45.47
63700;BME280;49845;47.130;142.766;2024-03-25T02:42:34;100161.63;;;0.30;44.53
63700;BME280;49845;47.130;142.766;2024-03-25T02:45:02;100158.00;;;0.22;43.46
63700;BME280;49845;47.130;142.766;2024-03-25T02:47:31;100167.78;;;0.01;45.41
63700;BME280;49845;47.130;142.766;2024-03-25T02:49:58;100151.84;;;0.15;43.56
63700;BME280;49845;47.130;142.766;2024-03-25T02:52:27;100156.75;;;-0.29;44.59
63700;BME280;49845;47.130;142.766;2024-03-25T02:54:56;100151.44;;;-0.36;44.95
63700;BME280;49845;47.130;142.766;2024-03-25T02:57:25;100138.97;;;-0.21;45.80
63700;BME280;49845;47.130;142.766;2024-03-25T02:59:54;100144.09;;;0.14;45.36
63700;BME280;49845;47.130;142.766;2024-03-25T03:02:23;100141.34;;;0.42;43.83
63700;BME280;49845;47.130;142.766;2024-03-25T03:04:51;100143.03;;;0.81;45.36
63700;BME280;49845;47.130;142.766;2024-03-25T03:07:20;100148.41;;;0.92;44.44
63700;BME280;49845;47.130;142.766;2024-03-25T03:09:48;100148.88;;;0.74;44.40
63700;BME280;49845;47.130;142.766;2024-03-25T03:12:16;100130.63;;;1.03;45.19
63700;BME280;49845;47.130;142.766;2024-03-25T03:14:44;100132.59;;;1.16;45.29
63700;BME280;49845;47.130;142.766;2024-03-25T03:17:15;100125.19;;;1.33;46.25
63700;BME280;49845;47.130;142.766;2024-03-25T03:19:42;100119.09;;;1.75;45.46
63700;BME280;49845;47.130;142.766;2024-03-25T03:22:11;100128.97;;;2.02;44.46
63700;BME280;49845;47.130;142.766;2024-03-25T03:24:39;100122.69;;;1.85;44.43
63700;BME280;49845;47.130;142.766;2024-03-25T03:27:08;100128.91;;;1.99;44.17
63700;BME280;49845;47.130;142.766;2024-03-25T03:29:35;100114.25;;;1.95;43.89
63700;BME280;49845;47.130;142.766;2024-03-25T03:32:05;100037.03;;;1.45;44.22
63700;BME280;49845;47.130;142.766;2024-03-25T03:34:34;100113.88;;;2.27;44.96
63700;BME280;49845;47.130;142.766;2024-03-25T03:37:03;100124.38;;;2.39;43.89
63700;BME280;49845;47.130;142.766;2024-03-25T03:39:30;100118.44;;;2.45;44.95
63700;BME280;49845;47.130;142.766;2024-03-25T03:41:59;100122.16;;;2.67;45.63
63700;BME280;49845;47.130;142.766;2024-03-25T03:44:27;100078.31;;;2.67;44.42
63700;BME280;49845;47.130;142.766;2024-03-25T03:46:56;100123.34;;;2.90;43.76
63700;BME280;49845;47.130;142.766;2024-03-25T03:49:24;100130.06;;;2.79;44.62
63700;BME280;49845;47.130;142.766;2024-03-25T03:51:54;100128.25;;;2.70;44.80
63700;BME280;49845;47.130;142.766;2024-03-25T03:54:22;100133.50;;;2.78;43.83
63700;BME280;49845;47.130;142.766;2024-03-25T03:56:51;100127.94;;;2.47;41.40
63700;BME280;49845;47.130;142.766;2024-03-25T03:59:18;100130.41;;;1.85;43.02
63700;BME280;49845;47.130;142.766;2024-03-25T04:01:47;100119.56;;;1.54;43.28
63700;BME280;49845;47.130;142.766;2024-03-25T04:04:15;100125.88;;;1.24;43.68
63700;BME280;49845;47.130;142.766;2024-03-25T04:06:44;100122.47;;;1.25;44.02
63700;BME280;49845;47.130;142.766;2024-03-25T04:09:13;100114.63;;;1.18;43.49
63700;BME280;49845;47.130;142.766;2024-03-25T04:11:42;100123.19;;;1.18;44.45
63700;BME280;49845;47.130;142.766;2024-03-25T04:14:11;100129.25;;;1.20;44.92
63700;BME280;49845;47.130;142.766;2024-03-25T04:16:39;100134.22;;;1.11;42.96
63700;BME280;49845;47.130;142.766;2024-03-25T04:19:07;100119.50;;;0.63;40.45
63700;BME280;49845;47.130;142.766;2024-03-25T04:21:36;100133.28;;;0.65;44.24
63700;BME280;49845;47.130;142.766;2024-03-25T04:24:04;100122.09;;;0.63;44.16
63700;BME280;49845;47.130;142.766;2024-03-25T04:26:35;100126.44;;;0.67;43.05
63700;BME280;49845;47.130;142.766;2024-03-25T04:29:02;100075.84;;;0.25;42.25
63700;BME280;49845;47.130;142.766;2024-03-25T04:31:31;100141.78;;;0.25;43.99
63700;BME280;49845;47.130;142.766;2024-03-25T04:33:59;100136.41;;;0.52;43.45
63700;BME280;49845;47.130;142.766;2024-03-25T04:36:28;100139.25;;;0.64;43.25
63700;BME280;49845;47.130;142.766;2024-03-25T04:38:56;100147.00;;;0.67;41.66
63700;BME280;49845;47.130;142.766;2024-03-25T04:41:23;100132.28;;;0.60;42.54
63700;BME280;49845;47.130;142.766;2024-03-25T04:43:52;100131.53;;;0.64;43.40
63700;BME280;49845;47.130;142.766;2024-03-25T04:46:20;100153.47;;;0.50;41.68
63700;BME280;49845;47.130;142.766;2024-03-25T04:48:47;100056.53;;;0.05;42.27
63700;BME280;49845;47.130;142.766;2024-03-25T04:51:15;100152.31;;;0.73;43.57
63700;BME280;49845;47.130;142.766;2024-03-25T04:53:42;100157.44;;;0.73;41.96
63700;BME280;49845;47.130;142.766;2024-03-25T04:56:10;100096.41;;;0.25;42.21
63700;BME280;49845;47.130;142.766;2024-03-25T04:58:37;100161.69;;;0.33;38.28
63700;BME280;49845;47.130;142.766;2024-03-25T05:01:07;100152.63;;;0.49;41.54
63700;BME280;49845;47.130;142.766;2024-03-25T05:03:34;100135.00;;;0.66;40.86
63700;BME280;49845;47.130;142.766;2024-03-25T05:06:04;100142.22;;;0.82;39.71
63700;BME280;49845;47.130;142.766;2024-03-25T05:08:32;100145.91;;;0.95;40.75
63700;BME280;49845;47.130;142.766;2024-03-25T05:10:59;100146.66;;;1.34;41.39
63700;BME280;49845;47.130;142.766;2024-03-25T05:13:27;100146.88;;;1.46;39.79
63700;BME280;49845;47.130;142.766;2024-03-25T05:15:54;100153.19;;;1.16;41.27
63700;BME280;49845;47.130;142.766;2024-03-25T05:18:23;100107.31;;;0.53;40.09
63700;BME280;49845;47.130;142.766;2024-03-25T05:20:51;100156.81;;;0.83;40.92
63700;BME280;49845;47.130;142.766;2024-03-25T05:23:18;100156.47;;;0.68;39.35
63700;BME280;49845;47.130;142.766;2024-03-25T05:25:46;100153.47;;;0.50;39.75
63700;BME280;49845;47.130;142.766;2024-03-25T05:28:13;100158.50;;;0.43;41.29
63700;BME280;49845;47.130;142.766;2024-03-25T05:30:41;100020.75;;;-0.26;42.83
63700;BME280;49845;47.130;142.766;2024-03-25T05:33:08;100143.28;;;0.53;40.15
63700;BME280;49845;47.130;142.766;2024-03-25T05:35:37;100145.13;;;0.60;41.87
63700;BME280;49845;47.130;142.766;2024-03-25T05:38:04;100141.41;;;0.46;41.04
63700;BME280;49845;47.130;142.766;2024-03-25T05:40:32;100144.69;;;0.38;40.66
63700;BME280;49845;47.130;142.766;2024-03-25T05:43:00;100149.66;;;0.32;41.51
63700;BME280;49845;47.130;142.766;2024-03-25T05:45:31;100129.81;;;0.25;40.64
63700;BME280;49845;47.130;142.766;2024-03-25T05:47:58;100156.41;;;-0.09;39.81
63700;BME280;49845;47.130;142.766;2024-03-25T05:50:26;100137.25;;;-0.20;40.88
63700;BME280;49845;47.130;142.766;2024-03-25T05:52:55;100164.03;;;-0.11;41.97
63700;BME280;49845;47.130;142.766;2024-03-25T05:55:22;100161.47;;;-0.12;39.27
63700;BME280;49845;47.130;142.766;2024-03-25T05:57:49;100166.91;;;0.00;39.95
63700;BME280;49845;47.130;142.766;2024-03-25T06:00:17;100157.56;;;0.04;38.36
63700;BME280;49845;47.130;142.766;2024-03-25T06:02:45;100158.34;;;0.01;38.96
63700;BME280;49845;47.130;142.766;2024-03-25T06:05:12;100164.53;;;0.08;39.96
63700;BME280;49845;47.130;142.766;2024-03-25T06:07:40;100160.97;;;0.03;40.45
63700;BME280;49845;47.130;142.766;2024-03-25T06:10:09;100172.91;;;0.01;39.32
63700;BME280;49845;47.130;142.766;2024-03-25T06:12:37;100143.88;;;0.05;38.44
63700;BME280;49845;47.130;142.766;2024-03-25T06:15:05;100158.47;;;0.06;38.57
63700;BME280;49845;47.130;142.766;2024-03-25T06:17:33;100159.94;;;-0.04;40.38
63700;BME280;49845;47.130;142.766;2024-03-25T06:20:00;100177.88;;;-0.06;40.84
63700;BME280;49845;47.130;142.766;2024-03-25T06:22:27;100167.97;;;0.10;40.02
63700;BME280;49845;47.130;142.766;2024-03-25T06:24:55;100183.84;;;0.28;41.18
63700;BME280;49845;47.130;142.766;2024-03-25T06:27:24;100177.69;;;0.58;42.33
63700;BME280;49845;47.130;142.766;2024-03-25T06:29:51;100182.72;;;0.55;39.70
63700;BME280;49845;47.130;142.766;2024-03-25T06:32:19;100181.88;;;0.54;41.12
63700;BME280;49845;47.130;142.766;2024-03-25T06:35:04;100172.31;;;0.49;42.71
63700;BME280;49845;47.130;142.766;2024-03-25T06:37:32;100181.00;;;0.54;42.81
63700;BME280;49845;47.130;142.766;2024-03-25T06:39:59;100173.25;;;0.52;42.10
63700;BME280;49845;47.130;142.766;2024-03-25T06:42:28;100180.28;;;0.59;42.95
63700;BME280;49845;47.130;142.766;2024-03-25T06:44:56;100179.13;;;0.47;43.80
63700;BME280;49845;47.130;142.766;2024-03-25T06:47:23;100186.22;;;0.57;43.49
63700;BME280;49845;47.130;142.766;2024-03-25T06:49:51;100190.03;;;0.36;43.37
63700;BME280;49845;47.130;142.766;2024-03-25T06:52:18;100183.56;;;0.16;43.55
63700;BME280;49845;47.130;142.766;2024-03-25T06:54:45;100190.84;;;-0.01;44.06
63700;BME280;49845;47.130;142.766;2024-03-25T06:57:13;100179.22;;;0.13;43.92
63700;BME280;49845;47.130;142.766;2024-03-25T06:59:42;100188.38;;;0.04;45.15
63700;BME280;49845;47.130;142.766;2024-03-25T07:02:09;100176.47;;;0.06;44.55
63700;BME280;49845;47.130;142.766;2024-03-25T07:04:37;100167.47;;;-0.12;43.99
63700;BME280;49845;47.130;142.766;2024-03-25T07:07:04;100182.69;;;-0.18;44.06
63700;BME280;49845;47.130;142.766;2024-03-25T07:09:34;100179.25;;;-0.20;44.65
63700;BME280;49845;47.130;142.766;2024-03-25T07:12:02;100192.56;;;-0.35;44.41
63700;BME280;49845;47.130;142.766;2024-03-25T07:14:30;100192.75;;;-0.27;45.88
63700;BME280;49845;47.130;142.766;2024-03-25T07:17:14;100185.94;;;-0.25;43.94
63700;BME280;49845;47.130;142.766;2024-03-25T07:19:41;100197.97;;;-0.24;45.06
63700;BME280;49845;47.130;142.766;2024-03-25T07:22:09;100205.59;;;-0.27;45.39
63700;BME280;49845;47.130;142.766;2024-03-25T07:24:36;100205.59;;;-0.27;45.59
63700;BME280;49845;47.130;142.766;2024-03-25T07:27:04;100228.78;;;-0.24;45.02
63700;BME280;49845;47.130;142.766;2024-03-25T07:29:31;100219.09;;;-0.34;45.49
63700;BME280;49845;47.130;142.766;2024-03-25T07:31:58;100224.03;;;-0.40;45.01
63700;BME280;49845;47.130;142.766;2024-03-25T07:34:27;100234.41;;;-0.37;46.35
63700;BME280;49845;47.130;142.766;2024-03-25T07:36:55;100242.34;;;-0.28;46.30
63700;BME280;49845;47.130;142.766;2024-03-25T07:39:22;100232.41;;;-0.48;43.91
63700;BME280;49845;47.130;142.766;2024-03-25T07:41:50;100241.44;;;-0.62;45.31
63700;BME280;49845;47.130;142.766;2024-03-25T07:44:17;100236.09;;;-0.68;45.09
63700;BME280;49845;47.130;142.766;2024-03-25T07:46:45;100248.13;;;-0.67;43.70
63700;BME280;49845;47.130;142.766;2024-03-25T07:49:12;100244.66;;;-0.69;44.21
63700;BME280;49845;47.130;142.766;2024-03-25T07:51:41;100251.34;;;-0.74;44.79
63700;BME280;49845;47.130;142.766;2024-03-25T07:54:09;100250.91;;;-0.90;44.00
63700;BME280;49845;47.130;142.766;2024-03-25T07:56:36;100257.47;;;-0.98;44.87
63700;BME280;49845;47.130;142.766;2024-03-25T07:59:04;100255.06;;;-0.93;45.38
63700;BME280;49845;47.130;142.766;2024-03-25T08:01:31;100259.22;;;-0.97;44.50
63700;BME280;49845;47.130;142.766;2024-03-25T08:03:59;100264.28;;;-1.00;44.56
63700;BME280;49845;47.130;142.766;2024-03-25T08:06:26;100271.06;;;-1.02;46.01
63700;BME280;49845;47.130;142.766;2024-03-25T08:08:55;100270.81;;;-1.10;45.39
63700;BME280;49845;47.130;142.766;2024-03-25T08:11:23;100267.19;;;-1.16;46.63
63700;BME280;49845;47.130;142.766;2024-03-25T08:13:50;100257.56;;;-1.23;46.56
63700;BME280;49845;47.130;142.766;2024-03-25T08:16:17;100275.59;;;-1.20;46.32
63700;BME280;49845;47.130;142.766;2024-03-25T08:18:45;100266.97;;;-1.22;46.97
63700;BME280;49845;47.130;142.766;2024-03-25T08:21:13;100267.81;;;-1.23;47.12
63700;BME280;49845;47.130;142.766;2024-03-25T08:23:40;100266.47;;;-1.39;43.67
63700;BME280;49845;47.130;142.766;2024-03-25T08:26:09;100281.59;;;-1.47;45.40
63700;BME280;49845;47.130;142.766;2024-03-25T08:28:37;100272.59;;;-1.61;45.73
63700;BME280;49845;47.130;142.766;2024-03-25T08:31:04;100269.09;;;-1.63;44.86
63700;BME280;49845;47.130;142.766;2024-03-25T08:33:32;100286.31;;;-1.59;45.16
63700;BME280;49845;47.130;142.766;2024-03-25T08:35:59;100264.84;;;-1.63;44.79
63700;BME280;49845;47.130;142.766;2024-03-25T08:38:27;100273.47;;;-1.61;46.35
63700;BME280;49845;47.130;142.766;2024-03-25T08:40:54;100275.78;;;-1.68;45.81
63700;BME280;49845;47.130;142.766;2024-03-25T08:43:23;100278.75;;;-1.82;45.21
63700;BME280;49845;47.130;142.766;2024-03-25T08:45:51;100287.81;;;-1.91;45.57
63700;BME280;49845;47.130;142.766;2024-03-25T08:48:18;100288.47;;;-1.97;45.61
63700;BME280;49845;47.130;142.766;2024-03-25T08:50:46;100285.84;;;-1.99;46.97
63700;BME280;49845;47.130;142.766;2024-03-25T08:53:13;100286.81;;;-1.95;48.61
63700;BME280;49845;47.130;142.766;2024-03-25T08:55:45;100280.06;;;-1.93;51.04
63700;BME280;49845;47.130;142.766;2024-03-25T08:58:13;100283.56;;;-1.91;51.13
63700;BME280;49845;47.130;142.766;2024-03-25T09:00:42;100285.09;;;-1.96;50.31
63700;BME280;49845;47.130;142.766;2024-03-25T09:03:10;100282.38;;;-2.01;50.94
63700;BME280;49845;47.130;142.766;2024-03-25T09:05:37;100287.41;;;-2.02;50.34
63700;BME280;49845;47.130;142.766;2024-03-25T09:08:05;100288.34;;;-2.00;50.98
63700;BME280;49845;47.130;142.766;2024-03-25T09:10:33;100278.50;;;-2.13;50.15
63700;BME280;49845;47.130;142.766;2024-03-25T09:13:19;100292.59;;;-2.01;49.47
63700;BME280;49845;47.130;142.766;2024-03-25T09:15:48;100294.19;;;-2.04;49.66
63700;BME280;49845;47.130;142.766;2024-03-25T09:18:15;100298.41;;;-2.06;51.39
63700;BME280;49845;47.130;142.766;2024-03-25T09:20:43;100291.22;;;-2.17;50.74
63700;BME280;49845;47.130;142.766;2024-03-25T09:23:13;100286.00;;;-2.20;52.07
63700;BME280;49845;47.130;142.766;2024-03-25T09:25:40;100300.13;;;-2.05;53.07
63700;BME280;49845;47.130;142.766;2024-03-25T09:28:17;100293.16;;;-2.09;52.04
63700;BME280;49845;47.130;142.766;2024-03-25T09:30:47;100296.34;;;-2.17;52.47
63700;BME280;49845;47.130;142.766;2024-03-25T09:33:14;100277.63;;;-2.38;51.98
63700;BME280;49845;47.130;142.766;2024-03-25T09:35:42;100293.81;;;-2.39;52.31
63700;BME280;49845;47.130;142.766;2024-03-25T09:38:09;100294.41;;;-2.46;52.22
63700;BME280;49845;47.130;142.766;2024-03-25T09:40:40;100305.69;;;-2.41;52.73
63700;BME280;49845;47.130;142.766;2024-03-25T09:43:13;100307.31;;;-2.43;52.19
63700;BME280;49845;47.130;142.766;2024-03-25T09:45:44;100316.88;;;-2.38;52.60
63700;BME280;49845;47.130;142.766;2024-03-25T09:48:18;100316.13;;;-2.35;53.13
63700;BME280;49845;47.130;142.766;2024-03-25T09:50:46;100318.81;;;-2.32;53.70
63700;BME280;49845;47.130;142.766;2024-03-25T09:53:14;100325.59;;;-2.32;53.54
63700;BME280;49845;47.130;142.766;2024-03-25T09:55:42;100328.03;;;-2.37;53.78
63700;BME280;49845;47.130;142.766;2024-03-25T09:58:10;100347.59;;;-2.38;54.42
63700;BME280;49845;47.130;142.766;2024-03-25T10:00:37;100304.66;;;-2.69;54.11
63700;BME280;49845;47.130;142.766;2024-03-25T10:03:05;100358.47;;;-2.43;54.25
63700;BME280;49845;47.130;142.766;2024-03-25T10:05:34;100363.38;;;-2.49;53.54
63700;BME280;49845;47.130;142.766;2024-03-25T10:08:02;100363.25;;;-2.52;54.02
63700;BME280;49845;47.130;142.766;2024-03-25T10:10:30;100366.41;;;-2.59;54.16
63700;BME280;49845;47.130;142.766;2024-03-25T10:12:57;100357.81;;;-2.62;54.42
63700;BME280;49845;47.130;142.766;2024-03-25T10:15:27;100362.91;;;-2.62;55.91
63700;BME280;49845;47.130;142.766;2024-03-25T10:17:54;100363.03;;;-2.58;56.69
63700;BME280;49845;47.130;142.766;2024-03-25T10:20:22;100362.09;;;-2.61;57.03
63700;BME280;49845;47.130;142.766;2024-03-25T10:22:51;100360.53;;;-2.57;57.21
63700;BME280;49845;47.130;142.766;2024-03-25T10:25:27;100279.88;;;-3.15;56.15
63700;BME280;49845;47.130;142.766;2024-03-25T10:27:55;100347.91;;;-2.52;57.19
63700;BME280;49845;47.130;142.766;2024-03-25T10:30:23;100367.09;;;-2.41;57.00
63700;BME280;49845;47.130;142.766;2024-03-25T10:33:00;100317.19;;;-2.97;56.07
63700;BME280;49845;47.130;142.766;2024-03-25T10:35:29;100380.44;;;-2.93;55.12
63700;BME280;49845;47.130;142.766;2024-03-25T10:37:59;100377.19;;;-3.10;55.70
63700;BME280;49845;47.130;142.766;2024-03-25T10:40:28;100374.59;;;-3.12;56.46
63700;BME280;49845;47.130;142.766;2024-03-25T10:43:02;100371.09;;;-3.14;57.06
63700;BME280;49845;47.130;142.766;2024-03-25T10:45:30;100387.06;;;-2.98;57.61
63700;BME280;49845;47.130;142.766;2024-03-25T10:47:58;100384.38;;;-3.01;57.73
63700;BME280;49845;47.130;142.766;2024-03-25T10:50:29;100331.66;;;-3.41;57.72
63700;BME280;49845;47.130;142.766;2024-03-25T10:52:59;100391.78;;;-3.08;58.50
63700;BME280;49845;47.130;142.766;2024-03-25T10:55:30;100388.94;;;-2.94;59.95
63700;BME280;49845;47.130;142.766;2024-03-25T10:57:58;100394.38;;;-2.85;59.76
63700;BME280;49845;47.130;142.766;2024-03-25T11:00:27;100397.50;;;-2.92;58.91
63700;BME280;49845;47.130;142.766;2024-03-25T11:02:55;100394.66;;;-3.21;57.73
63700;BME280;49845;47.130;142.766;2024-03-25T11:05:23;100397.25;;;-3.40;57.85
63700;BME280;49845;47.130;142.766;2024-03-25T11:07:52;100387.72;;;-3.44;59.03
63700;BME280;49845;47.130;142.766;2024-03-25T11:10:29;100405.22;;;-3.54;60.61
63700;BME280;49845;47.130;142.766;2024-03-25T11:12:57;100389.50;;;-3.63;60.43
63700;BME280;49845;47.130;142.766;2024-03-25T11:15:24;100397.69;;;-3.51;61.33
63700;BME280;49845;47.130;142.766;2024-03-25T11:17:51;100408.75;;;-3.71;60.40
63700;BME280;49845;47.130;142.766;2024-03-25T11:20:19;100408.31;;;-4.00;60.31
63700;BME280;49845;47.130;142.766;2024-03-25T11:22:50;100411.78;;;-4.37;60.48
63700;BME280;49845;47.130;142.766;2024-03-25T11:25:19;100419.53;;;-4.53;60.51
63700;BME280;49845;47.130;142.766;2024-03-25T11:27:49;100417.06;;;-4.51;60.94
63700;BME280;49845;47.130;142.766;2024-03-25T11:30:16;100416.31;;;-4.49;61.36
63700;BME280;49845;47.130;142.766;2024-03-25T11:32:44;100424.91;;;-4.47;62.57
63700;BME280;49845;47.130;142.766;2024-03-25T11:35:12;100419.38;;;-4.56;62.19
63700;BME280;49845;47.130;142.766;2024-03-25T11:37:41;100416.53;;;-4.62;62.29
63700;BME280;49845;47.130;142.766;2024-03-25T11:40:09;100422.81;;;-4.73;62.20
63700;BME280;49845;47.130;142.766;2024-03-25T11:42:39;100354.53;;;-5.16;62.94
63700;BME280;49845;47.130;142.766;2024-03-25T11:45:14;100366.72;;;-5.09;63.93
63700;BME280;49845;47.130;142.766;2024-03-25T11:47:43;100414.13;;;-4.95;63.84
63700;BME280;49845;47.130;142.766;2024-03-25T11:50:12;100426.28;;;-5.07;63.82
63700;BME280;49845;47.130;142.766;2024-03-25T11:52:40;100431.72;;;-5.17;64.39
63700;BME280;49845;47.130;142.766;2024-03-25T11:55:08;100427.63;;;-5.32;64.47
63700;BME280;49845;47.130;142.766;2024-03-25T11:57:36;100432.41;;;-5.38;64.59
63700;BME280;49845;47.130;142.766;2024-03-25T12:00:05;100430.69;;;-5.39;64.83
63700;BME280;49845;47.130;142.766;2024-03-25T12:02:36;100433.53;;;-5.49;65.16
63700;BME280;49845;47.130;142.766;2024-03-25T12:05:06;100436.75;;;-5.53;65.84
63700;BME280;49845;47.130;142.766;2024-03-25T12:07:33;100441.22;;;-5.66;65.94
63700;BME280;49845;47.130;142.766;2024-03-25T12:10:01;100444.53;;;-5.67;66.32
63700;BME280;49845;47.130;142.766;2024-03-25T12:12:47;100439.63;;;-5.64;66.82
63700;BME280;49845;47.130;142.766;2024-03-25T12:15:15;100442.00;;;-5.83;66.40
63700;BME280;49845;47.130;142.766;2024-03-25T12:17:44;100447.25;;;-5.80;66.90
63700;BME280;49845;47.130;142.766;2024-03-25T12:20:12;100431.84;;;-5.83;67.12
63700;BME280;49845;47.130;142.766;2024-03-25T12:22:40;100445.19;;;-5.71;67.43
63700;BME280;49845;47.130;142.766;2024-03-25T12:25:08;100447.75;;;-5.71;67.59
63700;BME280;49845;47.130;142.766;2024-03-25T12:27:37;100440.97;;;-5.87;67.17
63700;BME280;49845;47.130;142.766;2024-03-25T12:30:06;100428.91;;;-6.07;67.53
63700;BME280;49845;47.130;142.766;2024-03-25T12:32:37;100439.16;;;-6.05;67.48
63700;BME280;49845;47.130;142.766;2024-03-25T12:35:09;100445.69;;;-6.11;67.51
63700;BME280;49845;47.130;142.766;2024-03-25T12:37:37;100443.28;;;-6.24;67.97
63700;BME280;49845;47.130;142.766;2024-03-25T12:40:06;100439.94;;;-6.23;68.50
63700;BME280;49845;47.130;142.766;2024-03-25T12:42:34;100443.28;;;-6.24;68.73